createdAt,value
2023-03-23T16:00:23.593Z,15.26
2023-03-23T16:03:35.038Z,15.23
2023-03-23T16:06:38.543Z,15.18
2023-03-23T16:09:42.553Z,15.14
2023-03-23T16:12:46.743Z,15.09
2023-03-23T16:15:50.359Z,15.05
2023-03-23T16:18:53.406Z,15.01
2023-03-23T16:21:56.149Z,14.98
2023-03-23T16:24:58.896Z,14.94
2023-03-23T16:28:02.154Z,14.91
2023-03-23T16:31:05.707Z,14.86
2023-03-23T16:34:09.165Z,14.80
2023-03-23T16:37:12.203Z,14.72
2023-03-23T16:40:16.790Z,14.66
2023-03-23T16:43:19.595Z,14.61
2023-03-23T16:46:22.594Z,14.58
2023-03-23T16:49:25.826Z,14.54
2023-03-23T16:52:28.814Z,14.47
2023-03-23T16:55:32.547Z,14.39
2023-03-23T16:58:35.792Z,14.31
2023-03-23T17:01:39.205Z,14.25
2023-03-23T17:04:46.430Z,14.19
2023-03-23T17:07:49.448Z,14.15
2023-03-23T17:10:52.726Z,14.09
2023-03-23T17:13:55.567Z,14.04
2023-03-23T17:16:58.884Z,14.04
2023-03-23T17:20:02.284Z,14.02
2023-03-23T17:23:05.457Z,14.00
2023-03-23T17:26:08.373Z,13.97
2023-03-23T17:29:11.182Z,13.95
2023-03-23T17:32:14.714Z,13.95
2023-03-23T17:35:17.564Z,13.95
2023-03-23T17:38:20.500Z,13.93
2023-03-23T17:41:23.208Z,13.92
2023-03-23T17:44:26.549Z,13.91
2023-03-23T17:47:29.418Z,13.90
2023-03-23T17:50:32.306Z,13.90
2023-03-23T17:53:36.551Z,13.88
2023-03-23T17:56:39.646Z,13.88
2023-03-23T17:59:43.210Z,13.88
2023-03-23T18:02:46.030Z,13.87
2023-03-23T18:05:51.046Z,13.86
2023-03-23T18:08:53.801Z,13.88
2023-03-23T18:11:57.027Z,13.86
2023-03-23T18:15:00.150Z,13.85
2023-03-23T18:18:06.753Z,13.85
2023-03-23T18:21:10.967Z,13.85
2023-03-23T18:24:14.347Z,13.82
2023-03-23T18:27:17.631Z,13.77
2023-03-23T18:30:21.002Z,13.71
2023-03-23T18:33:25.838Z,13.69
2023-03-23T18:36:28.965Z,13.67
2023-03-23T18:39:34.261Z,13.66
2023-03-23T18:42:42.194Z,13.66
2023-03-23T18:45:53.453Z,13.65
2023-03-23T18:48:56.403Z,13.63
2023-03-23T18:52:00.383Z,13.63
2023-03-23T18:55:04.023Z,13.63
2023-03-23T18:58:06.797Z,13.63
2023-03-23T19:01:12.905Z,13.62
2023-03-23T19:04:16.069Z,13.64
2023-03-23T19:07:19.857Z,13.66
2023-03-23T19:10:23.989Z,13.67
2023-03-23T19:13:29.156Z,13.67
2023-03-23T19:16:35.804Z,13.67
2023-03-23T19:19:39.068Z,13.67
2023-03-23T19:22:41.922Z,13.67
2023-03-23T19:25:45.680Z,13.65
2023-03-23T19:31:55.946Z,13.58
2023-03-23T19:34:59.205Z,13.57
2023-03-23T19:38:02.200Z,13.56
2023-03-23T19:41:06.275Z,13.52
2023-03-23T19:44:09.513Z,13.50
2023-03-23T19:47:12.764Z,13.47
2023-03-23T19:50:16.588Z,13.39
2023-03-23T19:53:20.203Z,13.35
2023-03-23T19:56:24.001Z,13.30
2023-03-23T19:59:26.883Z,13.29
2023-03-23T20:02:29.644Z,13.28
2023-03-23T20:05:35.154Z,13.28
2023-03-23T20:08:43.315Z,13.28
2023-03-23T20:11:46.551Z,13.29
2023-03-23T20:14:49.503Z,13.31
2023-03-23T20:17:53.098Z,13.32
2023-03-23T20:21:11.307Z,13.33
2023-03-23T20:24:14.232Z,13.34
2023-03-23T20:27:17.774Z,13.37
2023-03-23T20:30:20.655Z,13.37
2023-03-23T20:33:23.559Z,13.38
2023-03-23T20:36:29.852Z,13.38
2023-03-23T20:39:33.678Z,13.39
2023-03-23T20:42:37.038Z,13.40
2023-03-23T20:45:39.766Z,13.40
2023-03-23T20:48:42.773Z,13.41
2023-03-23T20:51:46.655Z,13.41
2023-03-23T20:54:50.817Z,13.39
2023-03-23T20:57:53.588Z,13.38
2023-03-23T21:00:58.160Z,13.39
2023-03-23T21:04:03.195Z,13.39
2023-03-23T21:07:06.292Z,13.38
2023-03-23T21:10:09.168Z,13.37
2023-03-23T21:13:13.199Z,13.36
2023-03-23T21:16:16.065Z,13.34
2023-03-23T21:19:19.759Z,13.34
2023-03-23T21:22:23.280Z,13.34
2023-03-23T21:25:34.828Z,13.33
2023-03-23T21:28:38.235Z,13.33
2023-03-23T21:31:41.647Z,13.32
2023-03-23T21:34:46.662Z,13.31
2023-03-23T21:37:49.979Z,13.30
2023-03-23T21:40:54.576Z,13.29
2023-03-23T21:43:57.896Z,13.27
2023-03-23T21:47:02.096Z,13.24
2023-03-23T21:50:07.108Z,13.22
2023-03-23T21:53:12.901Z,13.22
2023-03-23T21:56:16.609Z,13.20
2023-03-23T21:59:19.351Z,13.18
2023-03-23T22:02:22.520Z,13.14
2023-03-23T22:05:25.346Z,13.09
2023-03-23T22:08:29.720Z,13.07
2023-03-23T22:11:32.850Z,13.06
2023-03-23T22:14:35.645Z,13.04
2023-03-23T22:17:39.889Z,13.02
2023-03-23T22:20:43.546Z,12.98
2023-03-23T22:23:46.784Z,12.92
2023-03-23T22:26:49.844Z,12.86
2023-03-23T22:29:52.657Z,12.79
2023-03-23T22:32:57.705Z,12.72
2023-03-23T22:36:06.261Z,12.67
2023-03-23T22:39:09.816Z,12.62
2023-03-23T22:42:13.521Z,12.57
2023-03-23T22:45:16.783Z,12.51
2023-03-23T22:48:25.284Z,12.46
2023-03-23T22:51:28.558Z,12.40
2023-03-23T22:54:31.392Z,12.36
2023-03-23T22:57:35.834Z,12.30
2023-03-23T23:00:40.268Z,12.25
2023-03-23T23:03:43.408Z,12.19
2023-03-23T23:06:46.238Z,12.15
2023-03-23T23:09:48.981Z,12.12
2023-03-23T23:12:54.003Z,12.07
2023-03-23T23:15:58.556Z,12.03
2023-03-23T23:19:01.308Z,11.99
2023-03-23T23:22:18.366Z,11.92
2023-03-23T23:25:22.513Z,11.84
2023-03-23T23:28:25.546Z,11.80
2023-03-23T23:31:33.615Z,11.73
2023-03-23T23:34:36.905Z,11.68
2023-03-23T23:37:39.692Z,11.67
2023-03-23T23:40:44.539Z,11.66
2023-03-23T23:43:47.521Z,11.63
2023-03-23T23:46:50.350Z,11.58
2023-03-23T23:49:53.168Z,11.54
2023-03-23T23:52:56.342Z,11.54
2023-03-23T23:56:03.877Z,11.55
2023-03-23T23:59:06.793Z,11.56
